Bw Prince — LADQ7 — position and weather

sailwx.info

Track history (hours):
 
Tides and Currents Weather Stations Pressure Air Temp Water Temp Dewpoint Dewpoint Depression Visibility Wind Speed Wind Dir Waves Ship Positions

Bw Prince

Last reported at 2017-Jul-29 03:21 UTC. Time now 2017-Aug-22 16:56 UTC.
Position N 17°56' W 061°02'.
Warning: this ship's position is 24 days out of date.

Length 225 m; draft 12.1 m.

Type: Tanker. MMSI: 259708000.

Date/timePositionNaut miles runAvg speedWind from/ knotsBaromVisibWave heightAir tempDewpointWater temp
2017-Jul-29 03:21N 17°56' W 061°02'515.0
2017-Jul-29 03:00N 17°59' W 061°07'715.0
2017-Jul-29 02:30N 18°04' W 061°13'7810.9
2017-Jul-28 19:19N 18°44' W 062°23'2014.7
2017-Jul-28 17:58N 18°47' W 062°44'  
2017-Jul-22 22:35N 29°26' W 094°50'410.6
2017-Jul-22 22:11N 29°30' W 094°52'210.6
2017-Jul-22 22:00N 29°31' W 094°53'510.1
2017-Jul-22 21:30N 29°36' W 094°56'510.0
2017-Jul-22 21:00N 29°40' W 094°59'4 7.7
2017-Jul-22 20:30N 29°43' W 095°01'4 7.1
2017-Jul-22 20:00N 29°46' W 095°04'3 5.5
2017-Jul-22 19:28N 29°44' W 095°07'  
2017-Jul-20 03:38N 29°44' W 095°07'0 0.5
2017-Jul-20 03:31N 29°44' W 095°07'2 4.1
2017-Jul-20 03:00N 29°45' W 095°06'3 5.4
2017-Jul-20 02:31N 29°44' W 095°03'4 7.0
2017-Jul-20 02:00N 29°42' W 094°60'510.4
2017-Jul-20 01:30N 29°37' W 094°57'612.1
2017-Jul-20 01:00N 29°32' W 094°54'611.7
2017-Jul-20 00:31N 29°27' W 094°51'611.3
2017-Jul-20 00:00N 29°22' W 094°48'  
Track history (hours):
 
Tides and Currents Weather Stations Pressure Air Temp Water Temp Dewpoint Dewpoint Depression Visibility Wind Speed Wind Dir Waves Ship Positions

Bw Prince

Last reported at 2017-Jul-29 03:21 UTC. Time now 2017-Aug-22 16:56 UTC.
Position N 17°56' W 061°02'.
Warning: this ship's position is 24 days out of date.

Length 225 m; draft 12.1 m.

Type: Tanker. MMSI: 259708000.

Date/timePositionNaut miles runAvg speedWind from/ knotsBaromVisibWave heightAir tempDewpointWater temp
2017-Jul-29 03:21N 17°56' W 061°02'515.0
2017-Jul-29 03:00N 17°59' W 061°07'715.0
2017-Jul-29 02:30N 18°04' W 061°13'7810.9
2017-Jul-28 19:19N 18°44' W 062°23'2014.7
2017-Jul-28 17:58N 18°47' W 062°44'  
2017-Jul-22 22:35N 29°26' W 094°50'410.6
2017-Jul-22 22:11N 29°30' W 094°52'210.6
2017-Jul-22 22:00N 29°31' W 094°53'510.1
2017-Jul-22 21:30N 29°36' W 094°56'510.0
2017-Jul-22 21:00N 29°40' W 094°59'4 7.7
2017-Jul-22 20:30N 29°43' W 095°01'4 7.1
2017-Jul-22 20:00N 29°46' W 095°04'3 5.5
2017-Jul-22 19:28N 29°44' W 095°07'  
2017-Jul-20 03:38N 29°44' W 095°07'0 0.5
2017-Jul-20 03:31N 29°44' W 095°07'2 4.1
2017-Jul-20 03:00N 29°45' W 095°06'3 5.4
2017-Jul-20 02:31N 29°44' W 095°03'4 7.0
2017-Jul-20 02:00N 29°42' W 094°60'510.4
2017-Jul-20 01:30N 29°37' W 094°57'612.1
2017-Jul-20 01:00N 29°32' W 094°54'611.7
2017-Jul-20 00:31N 29°27' W 094°51'611.3
2017-Jul-20 00:00N 29°22' W 094°48'  

Dump ship's entire track history